LOT461 EPWA-EKCH
Flight info
| Callsign | LOT461 |
|---|---|
| Flight time | 1h 7m |
| Altitude | 36000 |
| Route | OLILA L621 LUSID DCT ROE M743 TIDVU |
| Aircraft | B738/M-SDE2E3FGIJ1RWY/LB1 |
Departure
| Time | 2026-05-04 17:08 |
|---|---|
| Airport | Warsaw Chopin Airport (EPWA) |
Arrival
| Time | 2026-05-04 18:15 |
|---|---|
| Airport | Copenhagen Kastrup Airport (EKCH) |
| Time | Latitude | Longitude | Altitude | Speed | Heading |
|---|---|---|---|---|---|
| 2026-05-04 16:04 | 52.17094 | 20.97061 | 338 ft | 0 kts | 75° |
| 2026-05-04 16:51 | 52.17091 | 20.97044 | 333 ft | 4 kts | 75° |
| 2026-05-04 16:52 | 52.17076 | 20.96973 | 333 ft | 4 kts | 60° |
| 2026-05-04 16:52 | 52.17068 | 20.96941 | 333 ft | 4 kts | 96° |
| 2026-05-04 16:53 | 52.17102 | 20.96889 | 336 ft | 4 kts | 152° |
| 2026-05-04 16:53 | 52.17115 | 20.96878 | 332 ft | 0 kts | 152° |
| 2026-05-04 17:00 | 52.17091 | 20.96899 | 334 ft | 0 kts | 152° |
| 2026-05-04 17:01 | 52.17088 | 20.96901 | 334 ft | 2 kts | 152° |
| 2026-05-04 17:01 | 52.17036 | 20.96946 | 336 ft | 7 kts | 152° |
| 2026-05-04 17:02 | 52.16922 | 20.97045 | 337 ft | 10 kts | 152° |
| 2026-05-04 17:02 | 52.16816 | 20.97139 | 338 ft | 8 kts | 152° |
| 2026-05-04 17:03 | 52.16765 | 20.97183 | 336 ft | 8 kts | 152° |
| 2026-05-04 17:03 | 52.16707 | 20.97234 | 337 ft | 11 kts | 152° |
| 2026-05-04 17:03 | 52.16577 | 20.97367 | 333 ft | 12 kts | 123° |
| 2026-05-04 17:04 | 52.16490 | 20.97670 | 337 ft | 16 kts | 115° |
| 2026-05-04 17:04 | 52.16390 | 20.97786 | 336 ft | 0 kts | 206° |
| 2026-05-04 17:05 | 52.16329 | 20.97738 | 335 ft | 10 kts | 205° |
| 2026-05-04 17:05 | 52.16303 | 20.97679 | 335 ft | 0 kts | 294° |
| 2026-05-04 17:07 | 52.16317 | 20.97628 | 335 ft | 26 kts | 295° |
| 2026-05-04 17:07 | 52.16502 | 20.96973 | 334 ft | 100 kts | 294° |
| 2026-05-04 17:08 | 52.16878 | 20.95632 | 337 ft | 159 kts | 294° |
| 2026-05-04 17:08 | 52.17843 | 20.92234 | 1593 ft | 170 kts | 289° |
| 2026-05-04 17:08 | 52.18434 | 20.90413 | 1969 ft | 200 kts | 306° |
| 2026-05-04 17:09 | 52.19697 | 20.89117 | 2280 ft | 229 kts | 332° |
| 2026-05-04 17:09 | 52.21221 | 20.88049 | 2558 ft | 250 kts | 333° |
| 2026-05-04 17:09 | 52.22851 | 20.86722 | 2916 ft | 269 kts | 324° |
| 2026-05-04 17:10 | 52.25974 | 20.83228 | 4644 ft | 271 kts | 321° |
| 2026-05-04 17:10 | 52.30606 | 20.77836 | 7235 ft | 274 kts | 322° |
| 2026-05-04 17:11 | 52.32181 | 20.76062 | 8016 ft | 277 kts | 322° |
| 2026-05-04 17:11 | 52.33782 | 20.74266 | 8788 ft | 280 kts | 322° |
| 2026-05-04 17:11 | 52.37038 | 20.70614 | 10260 ft | 290 kts | 322° |
| 2026-05-04 17:12 | 52.38751 | 20.68684 | 10457 ft | 313 kts | 322° |
| 2026-05-04 17:12 | 52.42588 | 20.64358 | 11025 ft | 349 kts | 323° |
| 2026-05-04 17:13 | 52.48662 | 20.57518 | 13215 ft | 357 kts | 322° |
| 2026-05-04 17:14 | 52.54876 | 20.50486 | 15352 ft | 366 kts | 322° |
| 2026-05-04 17:14 | 52.56982 | 20.48096 | 16059 ft | 369 kts | 322° |
| 2026-05-04 17:14 | 52.61214 | 20.43284 | 17453 ft | 376 kts | 322° |
| 2026-05-04 17:15 | 52.63374 | 20.40825 | 18129 ft | 380 kts | 322° |
| 2026-05-04 17:15 | 52.67753 | 20.35828 | 19314 ft | 386 kts | 322° |
| 2026-05-04 17:16 | 52.71953 | 20.30266 | 20460 ft | 389 kts | 311° |
| 2026-05-04 17:16 | 52.77370 | 20.20086 | 22089 ft | 399 kts | 309° |
| 2026-05-04 17:17 | 52.79222 | 20.16654 | 22637 ft | 402 kts | 310° |
| 2026-05-04 17:17 | 52.84788 | 20.06054 | 24068 ft | 411 kts | 308° |
| 2026-05-04 17:18 | 52.86609 | 20.02394 | 24524 ft | 412 kts | 308° |
| 2026-05-04 17:18 | 52.90276 | 19.95026 | 25392 ft | 417 kts | 308° |
| 2026-05-04 17:19 | 52.93997 | 19.87585 | 26205 ft | 422 kts | 308° |
| 2026-05-04 17:19 | 52.97758 | 19.80063 | 26985 ft | 426 kts | 308° |
| 2026-05-04 17:20 | 53.01558 | 19.72444 | 27744 ft | 430 kts | 308° |
| 2026-05-04 17:20 | 53.05389 | 19.64740 | 28459 ft | 435 kts | 308° |
| 2026-05-04 17:20 | 53.07383 | 19.60941 | 28809 ft | 437 kts | 312° |
| 2026-05-04 17:21 | 53.11669 | 19.53684 | 29505 ft | 441 kts | 314° |
| 2026-05-04 17:21 | 53.15986 | 19.46478 | 30441 ft | 437 kts | 313° |
| 2026-05-04 17:22 | 53.18110 | 19.42872 | 30890 ft | 434 kts | 313° |
| 2026-05-04 17:22 | 53.20211 | 19.39278 | 31265 ft | 434 kts | 313° |
| 2026-05-04 17:23 | 53.26329 | 19.28250 | 32466 ft | 428 kts | 309° |
| 2026-05-04 17:23 | 53.28264 | 19.24484 | 32877 ft | 426 kts | 309° |
| 2026-05-04 17:23 | 53.32109 | 19.16977 | 33661 ft | 423 kts | 309° |
| 2026-05-04 17:24 | 53.34023 | 19.13259 | 34060 ft | 421 kts | 309° |
| 2026-05-04 17:24 | 53.39775 | 19.02116 | 34798 ft | 422 kts | 309° |
| 2026-05-04 17:25 | 53.41689 | 18.98402 | 35094 ft | 421 kts | 309° |
| 2026-05-04 17:25 | 53.45519 | 18.90956 | 35588 ft | 421 kts | 309° |
| 2026-05-04 17:26 | 53.49347 | 18.83490 | 35920 ft | 425 kts | 309° |
| 2026-05-04 17:27 | 53.57906 | 18.63501 | 35931 ft | 416 kts | 301° |
| 2026-05-04 17:28 | 53.64228 | 18.47225 | 35933 ft | 415 kts | 301° |
| 2026-05-04 17:29 | 53.73716 | 18.22799 | 35938 ft | 415 kts | 301° |
| 2026-05-04 17:31 | 53.81613 | 18.02285 | 35935 ft | 417 kts | 300° |
| 2026-05-04 17:32 | 53.89498 | 17.81634 | 35947 ft | 418 kts | 300° |
| 2026-05-04 17:33 | 53.95791 | 17.65028 | 35948 ft | 418 kts | 300° |
| 2026-05-04 17:34 | 54.02052 | 17.48396 | 35948 ft | 417 kts | 300° |
| 2026-05-04 17:35 | 54.09801 | 17.27656 | 35958 ft | 416 kts | 299° |
| 2026-05-04 17:36 | 54.12888 | 17.19344 | 35960 ft | 415 kts | 299° |
| 2026-05-04 17:36 | 54.15970 | 17.11019 | 35957 ft | 415 kts | 299° |
| 2026-05-04 17:37 | 54.19042 | 17.02694 | 35962 ft | 414 kts | 298° |
| 2026-05-04 17:37 | 54.22104 | 16.94370 | 35958 ft | 414 kts | 298° |
| 2026-05-04 17:38 | 54.25214 | 16.86090 | 35961 ft | 415 kts | 301° |
| 2026-05-04 17:38 | 54.28655 | 16.78158 | 35961 ft | 416 kts | 303° |
| 2026-05-04 17:39 | 54.33906 | 16.66348 | 35964 ft | 415 kts | 303° |
| 2026-05-04 17:39 | 54.37371 | 16.58429 | 35963 ft | 415 kts | 302° |
| 2026-05-04 17:40 | 54.40818 | 16.50490 | 35962 ft | 415 kts | 302° |
| 2026-05-04 17:40 | 54.44254 | 16.42542 | 35964 ft | 415 kts | 302° |
| 2026-05-04 17:41 | 54.47687 | 16.34575 | 35957 ft | 414 kts | 302° |
| 2026-05-04 17:41 | 54.51113 | 16.26601 | 36034 ft | 414 kts | 301° |
| 2026-05-04 17:42 | 54.54537 | 16.18604 | 35963 ft | 415 kts | 301° |
| 2026-05-04 17:42 | 54.57954 | 16.10601 | 35953 ft | 414 kts | 301° |
| 2026-05-04 17:43 | 54.61357 | 16.02603 | 35951 ft | 413 kts | 301° |
| 2026-05-04 17:43 | 54.64747 | 15.94610 | 35948 ft | 412 kts | 301° |
| 2026-05-04 17:44 | 54.68124 | 15.86623 | 35947 ft | 411 kts | 300° |
| 2026-05-04 17:44 | 54.71502 | 15.78603 | 35434 ft | 416 kts | 300° |
| 2026-05-04 17:45 | 54.73201 | 15.74564 | 34866 ft | 414 kts | 300° |
| 2026-05-04 17:45 | 54.74884 | 15.70534 | 34362 ft | 411 kts | 299° |
| 2026-05-04 17:45 | 54.76540 | 15.66537 | 33936 ft | 406 kts | 299° |
| 2026-05-04 17:45 | 54.78174 | 15.62583 | 33429 ft | 402 kts | 299° |
| 2026-05-04 17:46 | 54.79789 | 15.58667 | 32979 ft | 396 kts | 299° |
| 2026-05-04 17:46 | 54.81379 | 15.54807 | 32533 ft | 391 kts | 299° |
| 2026-05-04 17:46 | 54.82946 | 15.50998 | 32119 ft | 386 kts | 299° |
| 2026-05-04 17:46 | 54.84494 | 15.47228 | 31694 ft | 381 kts | 299° |
| 2026-05-04 17:47 | 54.86021 | 15.43503 | 31274 ft | 376 kts | 298° |
| 2026-05-04 17:47 | 54.87528 | 15.39824 | 30878 ft | 371 kts | 298° |
| 2026-05-04 17:47 | 54.89016 | 15.36188 | 30453 ft | 367 kts | 298° |
| 2026-05-04 17:47 | 54.90484 | 15.32597 | 30066 ft | 363 kts | 298° |
| 2026-05-04 17:48 | 54.91876 | 15.28986 | 29610 ft | 355 kts | 293° |
| 2026-05-04 17:48 | 54.92983 | 15.25238 | 29256 ft | 345 kts | 290° |
| 2026-05-04 17:48 | 54.93686 | 15.22713 | 28964 ft | 341 kts | 290° |
| 2026-05-04 17:48 | 54.94704 | 15.19021 | 28565 ft | 337 kts | 290° |
| 2026-05-04 17:49 | 54.95710 | 15.15366 | 28162 ft | 333 kts | 289° |
| 2026-05-04 17:49 | 54.96706 | 15.11757 | 27760 ft | 329 kts | 290° |
| 2026-05-04 17:49 | 54.97694 | 15.08186 | 27357 ft | 326 kts | 289° |
| 2026-05-04 17:49 | 54.98673 | 15.04651 | 26964 ft | 322 kts | 290° |
| 2026-05-04 17:50 | 54.99641 | 15.01156 | 26582 ft | 320 kts | 289° |
| 2026-05-04 17:50 | 55.00604 | 14.97676 | 26189 ft | 317 kts | 289° |
| 2026-05-04 17:50 | 55.01557 | 14.94230 | 25820 ft | 315 kts | 289° |
| 2026-05-04 17:50 | 55.02505 | 14.90793 | 25450 ft | 315 kts | 289° |
| 2026-05-04 17:51 | 55.03438 | 14.87406 | 25089 ft | 314 kts | 289° |
| 2026-05-04 17:51 | 55.04402 | 14.83905 | 24715 ft | 320 kts | 290° |
| 2026-05-04 17:51 | 55.05385 | 14.80312 | 24339 ft | 335 kts | 290° |
| 2026-05-04 17:51 | 55.06391 | 14.76648 | 23910 ft | 335 kts | 290° |
| 2026-05-04 17:52 | 55.07403 | 14.73075 | 23606 ft | 331 kts | 291° |
| 2026-05-04 17:52 | 55.08449 | 14.69508 | 23160 ft | 329 kts | 292° |
| 2026-05-04 17:52 | 55.09508 | 14.65929 | 22739 ft | 326 kts | 292° |
| 2026-05-04 17:52 | 55.10528 | 14.62477 | 22338 ft | 323 kts | 292° |
| 2026-05-04 17:53 | 55.11554 | 14.58991 | 21933 ft | 323 kts | 292° |
| 2026-05-04 17:53 | 55.12575 | 14.55506 | 21529 ft | 321 kts | 292° |
| 2026-05-04 17:53 | 55.13591 | 14.52026 | 21130 ft | 322 kts | 292° |
| 2026-05-04 17:53 | 55.14623 | 14.48479 | 20729 ft | 324 kts | 292° |
| 2026-05-04 17:54 | 55.15644 | 14.44967 | 20322 ft | 324 kts | 293° |
| 2026-05-04 17:54 | 55.16648 | 14.41512 | 19927 ft | 322 kts | 293° |
| 2026-05-04 17:54 | 55.17671 | 14.37989 | 19526 ft | 320 kts | 293° |
| 2026-05-04 17:54 | 55.18673 | 14.34528 | 19131 ft | 318 kts | 293° |
| 2026-05-04 17:55 | 55.19669 | 14.31080 | 18739 ft | 317 kts | 293° |
| 2026-05-04 17:55 | 55.20660 | 14.27648 | 18343 ft | 316 kts | 294° |
| 2026-05-04 17:55 | 55.21648 | 14.24219 | 17901 ft | 315 kts | 293° |
| 2026-05-04 17:55 | 55.22630 | 14.20803 | 17473 ft | 313 kts | 293° |
| 2026-05-04 17:56 | 55.23605 | 14.17413 | 17075 ft | 311 kts | 294° |
| 2026-05-04 17:56 | 55.24574 | 14.14038 | 16686 ft | 309 kts | 294° |
| 2026-05-04 17:56 | 55.25531 | 14.10689 | 16293 ft | 306 kts | 292° |
| 2026-05-04 17:56 | 55.26417 | 14.07309 | 15966 ft | 302 kts | 291° |
| 2026-05-04 17:57 | 55.27253 | 14.03943 | 15587 ft | 301 kts | 290° |
| 2026-05-04 17:57 | 55.28077 | 14.00585 | 15222 ft | 299 kts | 290° |
| 2026-05-04 17:57 | 55.28897 | 13.97246 | 14862 ft | 297 kts | 290° |
| 2026-05-04 17:57 | 55.29716 | 13.93922 | 14490 ft | 296 kts | 290° |
| 2026-05-04 17:58 | 55.30534 | 13.90613 | 14119 ft | 295 kts | 290° |
| 2026-05-04 17:58 | 55.31350 | 13.87317 | 13748 ft | 294 kts | 290° |
| 2026-05-04 17:58 | 55.32164 | 13.84028 | 13337 ft | 293 kts | 290° |
| 2026-05-04 17:58 | 55.32977 | 13.80746 | 12948 ft | 292 kts | 290° |
| 2026-05-04 17:59 | 55.33785 | 13.77481 | 12569 ft | 291 kts | 291° |
| 2026-05-04 17:59 | 55.34587 | 13.74235 | 12192 ft | 289 kts | 291° |
| 2026-05-04 17:59 | 55.36169 | 13.67824 | 11466 ft | 286 kts | 291° |
| 2026-05-04 18:00 | 55.36968 | 13.64579 | 11098 ft | 285 kts | 291° |
| 2026-05-04 18:00 | 55.37744 | 13.61423 | 10745 ft | 284 kts | 291° |
| 2026-05-04 18:00 | 55.38526 | 13.58238 | 10404 ft | 283 kts | 291° |
| 2026-05-04 18:00 | 55.39294 | 13.55109 | 10261 ft | 275 kts | 291° |
| 2026-05-04 18:01 | 55.40040 | 13.52066 | 10122 ft | 267 kts | 291° |
| 2026-05-04 18:01 | 55.40761 | 13.49118 | 10007 ft | 259 kts | 291° |
| 2026-05-04 18:01 | 55.41462 | 13.46248 | 9796 ft | 254 kts | 291° |
| 2026-05-04 18:02 | 55.42849 | 13.40556 | 9215 ft | 251 kts | 291° |
| 2026-05-04 18:02 | 55.43537 | 13.37730 | 8928 ft | 250 kts | 291° |
| 2026-05-04 18:02 | 55.44217 | 13.34928 | 8645 ft | 249 kts | 291° |
| 2026-05-04 18:02 | 55.44895 | 13.32135 | 8368 ft | 247 kts | 291° |
| 2026-05-04 18:03 | 55.45568 | 13.29356 | 8090 ft | 246 kts | 290° |
| 2026-05-04 18:03 | 55.45930 | 13.26461 | 7905 ft | 240 kts | 271° |
| 2026-05-04 18:03 | 55.45840 | 13.23541 | 7792 ft | 240 kts | 265° |
| 2026-05-04 18:03 | 55.45652 | 13.20610 | 7677 ft | 242 kts | 264° |
| 2026-05-04 18:04 | 55.45512 | 13.17639 | 7523 ft | 244 kts | 276° |
| 2026-05-04 18:04 | 55.46114 | 13.14832 | 7339 ft | 249 kts | 297° |
| 2026-05-04 18:04 | 55.47789 | 13.09490 | 6978 ft | 247 kts | 296° |
| 2026-05-04 18:05 | 55.48602 | 13.06858 | 6824 ft | 243 kts | 296° |
| 2026-05-04 18:05 | 55.49405 | 13.04241 | 6674 ft | 242 kts | 296° |
| 2026-05-04 18:05 | 55.50205 | 13.01621 | 6523 ft | 242 kts | 296° |
| 2026-05-04 18:05 | 55.51001 | 12.99010 | 6390 ft | 242 kts | 296° |
| 2026-05-04 18:06 | 55.52581 | 12.93797 | 6125 ft | 240 kts | 296° |
| 2026-05-04 18:06 | 55.53370 | 12.91189 | 5986 ft | 241 kts | 296° |
| 2026-05-04 18:06 | 55.54159 | 12.88583 | 5822 ft | 241 kts | 298° |
| 2026-05-04 18:07 | 55.55293 | 12.86348 | 5671 ft | 246 kts | 324° |
| 2026-05-04 18:07 | 55.56885 | 12.85323 | 5548 ft | 251 kts | 349° |
| 2026-05-04 18:07 | 55.58604 | 12.85590 | 5484 ft | 249 kts | 12° |
| 2026-05-04 18:07 | 55.60227 | 12.86647 | 5409 ft | 242 kts | 18° |
| 2026-05-04 18:08 | 55.61769 | 12.87824 | 5182 ft | 241 kts | 19° |
| 2026-05-04 18:08 | 55.63272 | 12.89023 | 4962 ft | 239 kts | 20° |
| 2026-05-04 18:08 | 55.64780 | 12.90239 | 4739 ft | 238 kts | 20° |
| 2026-05-04 18:08 | 55.66299 | 12.91468 | 4469 ft | 237 kts | 20° |
| 2026-05-04 18:09 | 55.69308 | 12.93667 | 4201 ft | 225 kts | 7° |
| 2026-05-04 18:09 | 55.72229 | 12.94574 | 4216 ft | 209 kts | 5° |
| 2026-05-04 18:10 | 55.73679 | 12.94776 | 4179 ft | 203 kts | 344° |
| 2026-05-04 18:10 | 55.74878 | 12.93677 | 3954 ft | 191 kts | 310° |
| 2026-05-04 18:10 | 55.75480 | 12.91640 | 3543 ft | 191 kts | 287° |
| 2026-05-04 18:10 | 55.75610 | 12.89291 | 3282 ft | 193 kts | 258° |
| 2026-05-04 18:11 | 55.74870 | 12.87343 | 3076 ft | 202 kts | 216° |
| 2026-05-04 18:11 | 55.73827 | 12.85711 | 3078 ft | 199 kts | 230° |
| 2026-05-04 18:11 | 55.72959 | 12.83845 | 3025 ft | 190 kts | 237° |
| 2026-05-04 18:11 | 55.72222 | 12.82013 | 2938 ft | 177 kts | 236° |
| 2026-05-04 18:12 | 55.71364 | 12.80488 | 2756 ft | 173 kts | 224° |
| 2026-05-04 18:12 | 55.70459 | 12.79026 | 2350 ft | 178 kts | 228° |
| 2026-05-04 18:12 | 55.69538 | 12.77550 | 2021 ft | 179 kts | 223° |
| 2026-05-04 18:12 | 55.68575 | 12.76172 | 1661 ft | 176 kts | 224° |
| 2026-05-04 18:13 | 55.67690 | 12.74757 | 1377 ft | 165 kts | 226° |
| 2026-05-04 18:13 | 55.66861 | 12.73460 | 1169 ft | 155 kts | 225° |
| 2026-05-04 18:13 | 55.65333 | 12.71079 | 735 ft | 140 kts | 224° |
| 2026-05-04 18:14 | 55.64596 | 12.69938 | 571 ft | 143 kts | 225° |
| 2026-05-04 18:14 | 55.63846 | 12.68786 | 395 ft | 143 kts | 225° |
| 2026-05-04 18:14 | 55.63108 | 12.67644 | 207 ft | 143 kts | 225° |
| 2026-05-04 18:15 | 55.61707 | 12.65467 | 16 ft | 95 kts | 220° |
| 2026-05-04 18:15 | 55.61214 | 12.64416 | 17 ft | 22 kts | 252° |
| 2026-05-04 18:15 | 55.61185 | 12.64199 | 16 ft | 15 kts | 279° |
| 2026-05-04 18:16 | 55.61263 | 12.64111 | 16 ft | 15 kts | 12° |
| 2026-05-04 18:16 | 55.61350 | 12.64194 | 17 ft | 14 kts | 34° |
| 2026-05-04 18:16 | 55.61430 | 12.64286 | 18 ft | 13 kts | 32° |
| 2026-05-04 18:17 | 55.61591 | 12.64471 | 16 ft | 16 kts | 33° |
| 2026-05-04 18:17 | 55.61688 | 12.64571 | 16 ft | 14 kts | 6° |
| 2026-05-04 18:17 | 55.61878 | 12.64514 | 16 ft | 13 kts | 349° |
| 2026-05-04 18:18 | 55.61907 | 12.64504 | 17 ft | 0 kts | 349° |
| 2026-05-04 18:18 | 55.61915 | 12.64501 | 16 ft | 3 kts | 349° |
| 2026-05-04 18:18 | 55.61983 | 12.64479 | 17 ft | 16 kts | 350° |
| 2026-05-04 18:19 | 55.62094 | 12.64443 | 18 ft | 0 kts | 350° |
| 2026-05-04 18:19 | 55.62114 | 12.64437 | 16 ft | 7 kts | 350° |
| 2026-05-04 18:20 | 55.62193 | 12.64412 | 14 ft | 16 kts | 350° |
| 2026-05-04 18:20 | 55.62281 | 12.64272 | 16 ft | 19 kts | 304° |
| 2026-05-04 18:20 | 55.62358 | 12.64066 | 14 ft | 21 kts | 303° |
| 2026-05-04 18:20 | 55.62456 | 12.63831 | 15 ft | 24 kts | 321° |
| 2026-05-04 18:21 | 55.62577 | 12.63772 | 16 ft | 10 kts | 5° |
| 2026-05-04 18:21 | 55.62615 | 12.63787 | 16 ft | 3 kts | 15° |
| 2026-05-04 18:21 | 55.62646 | 12.63812 | 17 ft | 7 kts | 31° |
| 2026-05-04 18:21 | 55.62695 | 12.63867 | 16 ft | 7 kts | 33° |
| 2026-05-04 18:22 | 55.62739 | 12.63918 | 18 ft | 7 kts | 33° |
| 2026-05-04 18:22 | 55.62770 | 12.63953 | 16 ft | 4 kts | 33° |
| 2026-05-04 18:22 | 55.62793 | 12.63981 | 17 ft | 4 kts | 36° |
| 2026-05-04 18:22 | 55.62819 | 12.64032 | 16 ft | 7 kts | 51° |
| 2026-05-04 18:23 | 55.62853 | 12.64060 | 16 ft | 4 kts | 14° |
| 2026-05-04 18:23 | 55.62868 | 12.64066 | 16 ft | 1 kts | 11° |
| 2026-05-04 18:23 | 55.62874 | 12.64068 | 16 ft | 1 kts | 11° |